sensor_id;sensor_type;location;lat;lon;timestamp;temperature;humidity
3281;DHT22;1652;51.318;6.202;2023-03-24T00:01:54;11.80;99.90
3281;DHT22;1652;51.318;6.202;2023-03-24T00:04:22;11.80;99.90
3281;DHT22;1652;51.318;6.202;2023-03-24T00:06:50;11.80;99.90
3281;DHT22;1652;51.318;6.202;2023-03-24T00:09:19;11.90;99.90
3281;DHT22;1652;51.318;6.202;2023-03-24T00:11:46;11.90;99.90
3281;DHT22;1652;51.318;6.202;2023-03-24T00:14:13;11.90;99.90
3281;DHT22;1652;51.318;6.202;2023-03-24T00:16:41;11.90;99.90
3281;DHT22;1652;51.318;6.202;2023-03-24T00:19:09;12.00;99.90
3281;DHT22;1652;51.318;6.202;2023-03-24T00:21:37;12.00;99.90
3281;DHT22;1652;51.318;6.202;2023-03-24T00:24:05;12.00;99.90
3281;DHT22;1652;51.318;6.202;2023-03-24T00:26:35;12.00;99.90
3281;DHT22;1652;51.318;6.202;2023-03-24T00:29:09;12.00;99.90
3281;DHT22;1652;51.318;6.202;2023-03-24T00:31:39;12.00;99.90
3281;DHT22;1652;51.318;6.202;2023-03-24T00:34:08;12.00;99.90
3281;DHT22;1652;51.318;6.202;2023-03-24T00:36:36;12.10;99.90
3281;DHT22;1652;51.318;6.202;2023-03-24T00:39:04;12.10;99.90
3281;DHT22;1652;51.318;6.202;2023-03-24T00:41:32;12.10;99.90
3281;DHT22;1652;51.318;6.202;2023-03-24T00:44:00;12.10;99.90
3281;DHT22;1652;51.318;6.202;2023-03-24T00:46:29;12.10;99.90
3281;DHT22;1652;51.318;6.202;2023-03-24T00:49:00;12.10;99.90
3281;DHT22;1652;51.318;6.202;2023-03-24T00:51:37;12.10;99.90
3281;DHT22;1652;51.318;6.202;2023-03-24T00:54:06;12.10;99.90
3281;DHT22;1652;51.318;6.202;2023-03-24T00:56:35;12.10;99.90
3281;DHT22;1652;51.318;6.202;2023-03-24T00:59:03;12.10;99.90
3281;DHT22;1652;51.318;6.202;2023-03-24T01:01:32;12.10;99.90
3281;DHT22;1652;51.318;6.202;2023-03-24T01:04:01;12.20;99.90
3281;DHT22;1652;51.318;6.202;2023-03-24T01:06:29;12.20;99.90
3281;DHT22;1652;51.318;6.202;2023-03-24T01:08:56;12.30;99.90
3281;DHT22;1652;51.318;6.202;2023-03-24T01:11:26;12.30;99.90
3281;DHT22;1652;51.318;6.202;2023-03-24T01:13:54;12.30;99.90
3281;DHT22;1652;51.318;6.202;2023-03-24T01:16:21;12.30;99.90
3281;DHT22;1652;51.318;6.202;2023-03-24T01:18:51;12.30;99.90
3281;DHT22;1652;51.318;6.202;2023-03-24T01:21:18;12.30;99.90
3281;DHT22;1652;51.318;6.202;2023-03-24T01:23:45;12.30;99.90
3281;DHT22;1652;51.318;6.202;2023-03-24T01:26:13;12.40;99.90
3281;DHT22;1652;51.318;6.202;2023-03-24T01:28:40;12.40;99.90
3281;DHT22;1652;51.318;6.202;2023-03-24T01:31:10;12.40;99.90
3281;DHT22;1652;51.318;6.202;2023-03-24T01:33:37;12.40;99.90
3281;DHT22;1652;51.318;6.202;2023-03-24T01:36:05;12.40;99.90
3281;DHT22;1652;51.318;6.202;2023-03-24T01:38:32;12.40;99.90
3281;DHT22;1652;51.318;6.202;2023-03-24T01:40:59;12.40;99.90
3281;DHT22;1652;51.318;6.202;2023-03-24T01:43:28;12.30;99.90
3281;DHT22;1652;51.318;6.202;2023-03-24T01:51:17;12.40;99.90
3281;DHT22;1652;51.318;6.202;2023-03-24T01:54:01;12.40;99.90
3281;DHT22;1652;51.318;6.202;2023-03-24T01:56:32;12.40;99.90
3281;DHT22;1652;51.318;6.202;2023-03-24T01:59:03;12.40;99.90
3281;DHT22;1652;51.318;6.202;2023-03-24T02:01:31;12.40;99.90
3281;DHT22;1652;51.318;6.202;2023-03-24T02:04:00;12.40;99.90
3281;DHT22;1652;51.318;6.202;2023-03-24T02:06:33;12.40;99.90
3281;DHT22;1652;51.318;6.202;2023-03-24T02:09:02;12.40;99.90
3281;DHT22;1652;51.318;6.202;2023-03-24T02:11:32;12.40;99.90
3281;DHT22;1652;51.318;6.202;2023-03-24T02:13:59;12.40;99.90
3281;DHT22;1652;51.318;6.202;2023-03-24T02:16:36;12.50;99.90
3281;DHT22;1652;51.318;6.202;2023-03-24T02:27:20;12.50;99.90
3281;DHT22;1652;51.318;6.202;2023-03-24T02:30:17;12.60;99.90
3281;DHT22;1652;51.318;6.202;2023-03-24T02:46:48;12.70;99.90
3281;DHT22;1652;51.318;6.202;2023-03-24T02:49:30;12.80;99.90
3281;DHT22;1652;51.318;6.202;2023-03-24T02:52:10;12.90;99.90
3281;DHT22;1652;51.318;6.202;2023-03-24T02:57:57;13.00;99.90
3281;DHT22;1652;51.318;6.202;2023-03-24T03:00:34;13.10;99.90
3281;DHT22;1652;51.318;6.202;2023-03-24T03:03:24;13.10;99.90
3281;DHT22;1652;51.318;6.202;2023-03-24T03:05:55;13.20;99.90
3281;DHT22;1652;51.318;6.202;2023-03-24T03:08:28;13.20;99.90
3281;DHT22;1652;51.318;6.202;2023-03-24T03:10:56;13.30;99.90
3281;DHT22;1652;51.318;6.202;2023-03-24T03:13:31;13.30;99.90
3281;DHT22;1652;51.318;6.202;2023-03-24T03:16:06;13.30;99.90
3281;DHT22;1652;51.318;6.202;2023-03-24T03:18:39;13.30;99.90
3281;DHT22;1652;51.318;6.202;2023-03-24T03:21:12;13.30;99.90
3281;DHT22;1652;51.318;6.202;2023-03-24T03:23:48;13.30;99.90
3281;DHT22;1652;51.318;6.202;2023-03-24T03:26:19;13.30;99.90
3281;DHT22;1652;51.318;6.202;2023-03-24T03:28:52;13.30;99.90
3281;DHT22;1652;51.318;6.202;2023-03-24T03:31:28;13.30;99.90
3281;DHT22;1652;51.318;6.202;2023-03-24T03:34:06;13.20;99.90
3281;DHT22;1652;51.318;6.202;2023-03-24T03:36:52;13.30;99.90
3281;DHT22;1652;51.318;6.202;2023-03-24T03:39:26;13.20;99.90
3281;DHT22;1652;51.318;6.202;2023-03-24T03:41:55;13.20;99.90
3281;DHT22;1652;51.318;6.202;2023-03-24T03:44:23;13.20;99.90
3281;DHT22;1652;51.318;6.202;2023-03-24T03:46:50;13.10;99.90
3281;DHT22;1652;51.318;6.202;2023-03-24T03:49:17;12.90;99.90
3281;DHT22;1652;51.318;6.202;2023-03-24T03:51:45;12.80;99.90
3281;DHT22;1652;51.318;6.202;2023-03-24T03:54:13;12.70;99.90
3281;DHT22;1652;51.318;6.202;2023-03-24T03:56:41;12.60;99.90
3281;DHT22;1652;51.318;6.202;2023-03-24T03:59:21;12.50;99.90
3281;DHT22;1652;51.318;6.202;2023-03-24T04:01:49;12.50;99.90
3281;DHT22;1652;51.318;6.202;2023-03-24T04:05:32;12.50;99.90
3281;DHT22;1652;51.318;6.202;2023-03-24T04:08:05;12.50;99.90
3281;DHT22;1652;51.318;6.202;2023-03-24T04:13:16;12.40;99.90
3281;DHT22;1652;51.318;6.202;2023-03-24T04:15:54;12.30;99.90
3281;DHT22;1652;51.318;6.202;2023-03-24T04:26:52;12.40;99.90
3281;DHT22;1652;51.318;6.202;2023-03-24T04:35:26;12.30;99.90
3281;DHT22;1652;51.318;6.202;2023-03-24T04:38:03;12.20;99.90
3281;DHT22;1652;51.318;6.202;2023-03-24T04:40:33;12.10;99.90
3281;DHT22;1652;51.318;6.202;2023-03-24T04:43:04;11.90;99.90
3281;DHT22;1652;51.318;6.202;2023-03-24T04:45:33;11.80;99.90
3281;DHT22;1652;51.318;6.202;2023-03-24T04:48:04;11.70;99.90
3281;DHT22;1652;51.318;6.202;2023-03-24T04:50:36;11.50;99.90
3281;DHT22;1652;51.318;6.202;2023-03-24T04:53:04;11.40;99.90
3281;DHT22;1652;51.318;6.202;2023-03-24T04:58:15;11.10;99.90
3281;DHT22;1652;51.318;6.202;2023-03-24T05:00:43;11.10;99.90
3281;DHT22;1652;51.318;6.202;2023-03-24T05:03:11;11.00;99.90
3281;DHT22;1652;51.318;6.202;2023-03-24T05:05:40;10.90;99.90
3281;DHT22;1652;51.318;6.202;2023-03-24T05:08:08;10.90;99.90
3281;DHT22;1652;51.318;6.202;2023-03-24T05:10:37;10.90;99.90
3281;DHT22;1652;51.318;6.202;2023-03-24T05:13:05;10.90;99.90
3281;DHT22;1652;51.318;6.202;2023-03-24T05:15:32;10.90;99.90
3281;DHT22;1652;51.318;6.202;2023-03-24T05:17:59;10.90;99.90
3281;DHT22;1652;51.318;6.202;2023-03-24T05:20:27;10.90;99.90
3281;DHT22;1652;51.318;6.202;2023-03-24T05:22:54;10.90;99.90
3281;DHT22;1652;51.318;6.202;2023-03-24T05:25:21;11.00;99.90
3281;DHT22;1652;51.318;6.202;2023-03-24T05:27:48;11.00;99.90
3281;DHT22;1652;51.318;6.202;2023-03-24T05:30:16;11.10;99.90
3281;DHT22;1652;51.318;6.202;2023-03-24T05:32:43;11.10;99.90
3281;DHT22;1652;51.318;6.202;2023-03-24T05:35:12;11.10;99.90
3281;DHT22;1652;51.318;6.202;2023-03-24T05:37:39;11.00;99.90
3281;DHT22;1652;51.318;6.202;2023-03-24T05:40:07;11.10;99.90
3281;DHT22;1652;51.318;6.202;2023-03-24T05:42:34;11.00;99.90
3281;DHT22;1652;51.318;6.202;2023-03-24T05:45:02;11.00;99.90
3281;DHT22;1652;51.318;6.202;2023-03-24T05:47:29;10.90;99.90
3281;DHT22;1652;51.318;6.202;2023-03-24T05:49:55;10.90;99.90
3281;DHT22;1652;51.318;6.202;2023-03-24T05:52:22;10.90;99.90
3281;DHT22;1652;51.318;6.202;2023-03-24T05:54:49;10.90;99.90
3281;DHT22;1652;51.318;6.202;2023-03-24T05:57:18;11.00;99.90
3281;DHT22;1652;51.318;6.202;2023-03-24T05:59:46;11.00;99.90
3281;DHT22;1652;51.318;6.202;2023-03-24T06:02:13;11.00;99.90
3281;DHT22;1652;51.318;6.202;2023-03-24T06:04:40;11.00;99.90
3281;DHT22;1652;51.318;6.202;2023-03-24T06:07:12;10.90;99.90
3281;DHT22;1652;51.318;6.202;2023-03-24T06:09:39;10.90;99.90
3281;DHT22;1652;51.318;6.202;2023-03-24T06:12:08;10.70;99.90
3281;DHT22;1652;51.318;6.202;2023-03-24T06:14:35;10.70;99.90
3281;DHT22;1652;51.318;6.202;2023-03-24T06:17:03;10.70;99.90
3281;DHT22;1652;51.318;6.202;2023-03-24T06:19:30;10.80;99.90
3281;DHT22;1652;51.318;6.202;2023-03-24T06:21:59;11.10;99.90
3281;DHT22;1652;51.318;6.202;2023-03-24T06:24:29;11.50;99.90
3281;DHT22;1652;51.318;6.202;2023-03-24T06:26:56;12.00;99.90
3281;DHT22;1652;51.318;6.202;2023-03-24T06:29:28;12.30;99.90
3281;DHT22;1652;51.318;6.202;2023-03-24T06:31:56;12.60;99.90
3281;DHT22;1652;51.318;6.202;2023-03-24T06:34:23;12.60;99.90
3281;DHT22;1652;51.318;6.202;2023-03-24T06:36:54;12.90;99.90
3281;DHT22;1652;51.318;6.202;2023-03-24T06:39:22;13.20;99.90
3281;DHT22;1652;51.318;6.202;2023-03-24T06:41:49;13.70;99.90
3281;DHT22;1652;51.318;6.202;2023-03-24T06:44:16;14.20;99.90
3281;DHT22;1652;51.318;6.202;2023-03-24T06:46:43;14.60;99.90
3281;DHT22;1652;51.318;6.202;2023-03-24T06:49:11;15.10;99.90
3281;DHT22;1652;51.318;6.202;2023-03-24T06:51:38;15.70;99.90
3281;DHT22;1652;51.318;6.202;2023-03-24T06:54:05;16.30;99.90
3281;DHT22;1652;51.318;6.202;2023-03-24T06:56:32;16.50;99.90
3281;DHT22;1652;51.318;6.202;2023-03-24T06:59:00;16.90;99.90
3281;DHT22;1652;51.318;6.202;2023-03-24T07:01:27;17.10;99.90
3281;DHT22;1652;51.318;6.202;2023-03-24T07:03:55;17.30;99.90
3281;DHT22;1652;51.318;6.202;2023-03-24T07:06:22;17.70;99.90
3281;DHT22;1652;51.318;6.202;2023-03-24T07:11:14;18.00;99.90
3281;DHT22;1652;51.318;6.202;2023-03-24T07:13:42;18.00;99.90
3281;DHT22;1652;51.318;6.202;2023-03-24T07:16:09;17.60;99.90
3281;DHT22;1652;51.318;6.202;2023-03-24T07:18:35;17.50;99.90
3281;DHT22;1652;51.318;6.202;2023-03-24T07:21:02;17.50;99.90
3281;DHT22;1652;51.318;6.202;2023-03-24T07:23:29;17.40;99.90
3281;DHT22;1652;51.318;6.202;2023-03-24T07:25:58;17.30;99.90
3281;DHT22;1652;51.318;6.202;2023-03-24T07:28:25;17.60;99.90
3281;DHT22;1652;51.318;6.202;2023-03-24T07:30:52;17.90;99.90
3281;DHT22;1652;51.318;6.202;2023-03-24T07:33:21;18.20;99.90
3281;DHT22;1652;51.318;6.202;2023-03-24T07:35:53;18.30;99.90
3281;DHT22;1652;51.318;6.202;2023-03-24T07:38:22;18.40;99.90
3281;DHT22;1652;51.318;6.202;2023-03-24T07:40:49;18.50;99.90
3281;DHT22;1652;51.318;6.202;2023-03-24T07:43:16;18.40;99.90
3281;DHT22;1652;51.318;6.202;2023-03-24T07:45:46;18.30;99.90
3281;DHT22;1652;51.318;6.202;2023-03-24T07:48:14;18.40;99.90
3281;DHT22;1652;51.318;6.202;2023-03-24T07:50:41;18.20;99.90
3281;DHT22;1652;51.318;6.202;2023-03-24T07:53:08;18.50;99.90
3281;DHT22;1652;51.318;6.202;2023-03-24T07:55:38;18.30;99.90
3281;DHT22;1652;51.318;6.202;2023-03-24T07:58:05;18.10;99.90
3281;DHT22;1652;51.318;6.202;2023-03-24T08:00:32;17.30;99.90
3281;DHT22;1652;51.318;6.202;2023-03-24T08:02:59;16.90;99.90
3281;DHT22;1652;51.318;6.202;2023-03-24T08:05:28;16.40;99.90
3281;DHT22;1652;51.318;6.202;2023-03-24T08:07:55;16.70;99.90
3281;DHT22;1652;51.318;6.202;2023-03-24T08:10:26;16.90;99.90
3281;DHT22;1652;51.318;6.202;2023-03-24T08:12:54;16.90;99.90
3281;DHT22;1652;51.318;6.202;2023-03-24T08:15:22;16.90;99.90
3281;DHT22;1652;51.318;6.202;2023-03-24T08:17:49;17.00;99.90
3281;DHT22;1652;51.318;6.202;2023-03-24T08:20:18;16.90;99.90
3281;DHT22;1652;51.318;6.202;2023-03-24T08:22:47;16.90;99.90
3281;DHT22;1652;51.318;6.202;2023-03-24T08:25:17;16.80;99.90
3281;DHT22;1652;51.318;6.202;2023-03-24T08:27:44;16.80;99.90
3281;DHT22;1652;51.318;6.202;2023-03-24T08:30:21;16.50;99.90
3281;DHT22;1652;51.318;6.202;2023-03-24T08:32:54;16.50;99.90
3281;DHT22;1652;51.318;6.202;2023-03-24T08:35:26;16.50;99.90
3281;DHT22;1652;51.318;6.202;2023-03-24T08:37:53;16.90;99.90
3281;DHT22;1652;51.318;6.202;2023-03-24T08:40:22;17.20;99.90
3281;DHT22;1652;51.318;6.202;2023-03-24T08:42:52;17.10;99.90
3281;DHT22;1652;51.318;6.202;2023-03-24T08:45:21;17.30;99.90
3281;DHT22;1652;51.318;6.202;2023-03-24T08:47:50;17.50;99.90
3281;DHT22;1652;51.318;6.202;2023-03-24T08:50:20;17.70;99.90
3281;DHT22;1652;51.318;6.202;2023-03-24T08:52:47;17.80;99.90
3281;DHT22;1652;51.318;6.202;2023-03-24T08:55:15;18.00;99.90
3281;DHT22;1652;51.318;6.202;2023-03-24T08:57:43;17.90;99.90
3281;DHT22;1652;51.318;6.202;2023-03-24T09:00:10;17.60;99.90
3281;DHT22;1652;51.318;6.202;2023-03-24T09:02:42;17.20;99.90
3281;DHT22;1652;51.318;6.202;2023-03-24T09:05:10;16.90;99.90
3281;DHT22;1652;51.318;6.202;2023-03-24T09:07:38;16.30;99.90
3281;DHT22;1652;51.318;6.202;2023-03-24T09:10:06;16.00;99.90
3281;DHT22;1652;51.318;6.202;2023-03-24T09:12:34;16.10;99.90
3281;DHT22;1652;51.318;6.202;2023-03-24T09:15:03;16.00;99.90
3281;DHT22;1652;51.318;6.202;2023-03-24T09:17:30;15.70;99.90
3281;DHT22;1652;51.318;6.202;2023-03-24T09:19:58;15.60;99.90
3281;DHT22;1652;51.318;6.202;2023-03-24T09:22:27;15.40;99.90
3281;DHT22;1652;51.318;6.202;2023-03-24T09:24:54;15.40;99.90
3281;DHT22;1652;51.318;6.202;2023-03-24T09:27:21;15.60;99.90
3281;DHT22;1652;51.318;6.202;2023-03-24T09:29:48;15.60;99.90
3281;DHT22;1652;51.318;6.202;2023-03-24T09:32:16;15.50;99.90
3281;DHT22;1652;51.318;6.202;2023-03-24T09:34:42;15.30;99.90
3281;DHT22;1652;51.318;6.202;2023-03-24T09:37:09;15.00;99.90
3281;DHT22;1652;51.318;6.202;2023-03-24T09:39:36;14.80;99.90
3281;DHT22;1652;51.318;6.202;2023-03-24T09:42:23;14.60;99.90
3281;DHT22;1652;51.318;6.202;2023-03-24T09:44:58;14.60;99.90
3281;DHT22;1652;51.318;6.202;2023-03-24T09:47:32;14.70;99.90
3281;DHT22;1652;51.318;6.202;2023-03-24T09:50:15;14.90;99.90
3281;DHT22;1652;51.318;6.202;2023-03-24T09:52:44;15.10;99.90
3281;DHT22;1652;51.318;6.202;2023-03-24T09:55:17;15.30;99.90
3281;DHT22;1652;51.318;6.202;2023-03-24T09:57:47;15.20;99.90
3281;DHT22;1652;51.318;6.202;2023-03-24T10:00:22;15.00;99.90
3281;DHT22;1652;51.318;6.202;2023-03-24T10:02:50;14.70;99.90
3281;DHT22;1652;51.318;6.202;2023-03-24T10:05:23;14.80;99.90
3281;DHT22;1652;51.318;6.202;2023-03-24T10:10:54;15.00;99.90
3281;DHT22;1652;51.318;6.202;2023-03-24T10:17:02;15.50;99.90
3281;DHT22;1652;51.318;6.202;2023-03-24T10:27:48;15.40;99.90
3281;DHT22;1652;51.318;6.202;2023-03-24T10:30:20;15.20;99.90
3281;DHT22;1652;51.318;6.202;2023-03-24T10:32:48;15.20;99.90
3281;DHT22;1652;51.318;6.202;2023-03-24T10:35:29;15.20;99.90
3281;DHT22;1652;51.318;6.202;2023-03-24T10:37:59;15.30;99.90
3281;DHT22;1652;51.318;6.202;2023-03-24T10:40:31;15.40;99.90
3281;DHT22;1652;51.318;6.202;2023-03-24T10:43:01;15.40;99.90
3281;DHT22;1652;51.318;6.202;2023-03-24T10:45:38;15.20;99.90
3281;DHT22;1652;51.318;6.202;2023-03-24T10:48:06;15.20;99.90
3281;DHT22;1652;51.318;6.202;2023-03-24T10:50:41;15.40;99.90
3281;DHT22;1652;51.318;6.202;2023-03-24T10:53:19;15.40;99.90
3281;DHT22;1652;51.318;6.202;2023-03-24T10:55:46;15.60;99.90
3281;DHT22;1652;51.318;6.202;2023-03-24T10:58:39;15.70;99.90
3281;DHT22;1652;51.318;6.202;2023-03-24T11:01:23;15.80;99.90
3281;DHT22;1652;51.318;6.202;2023-03-24T11:04:01;15.80;99.90
3281;DHT22;1652;51.318;6.202;2023-03-24T11:06:31;15.80;99.90
3281;DHT22;1652;51.318;6.202;2023-03-24T11:09:09;16.00;99.90
3281;DHT22;1652;51.318;6.202;2023-03-24T11:11:36;16.30;99.90
3281;DHT22;1652;51.318;6.202;2023-03-24T11:14:09;16.20;99.90
3281;DHT22;1652;51.318;6.202;2023-03-24T11:16:44;15.90;99.90
3281;DHT22;1652;51.318;6.202;2023-03-24T11:19:22;15.90;99.90
3281;DHT22;1652;51.318;6.202;2023-03-24T11:21:51;16.20;99.90
3281;DHT22;1652;51.318;6.202;2023-03-24T11:24:23;16.20;99.90
3281;DHT22;1652;51.318;6.202;2023-03-24T11:26:58;16.10;99.90
3281;DHT22;1652;51.318;6.202;2023-03-24T11:29:30;15.80;99.90
3281;DHT22;1652;51.318;6.202;2023-03-24T11:32:00;15.70;99.90
3281;DHT22;1652;51.318;6.202;2023-03-24T11:34:31;15.60;99.90
3281;DHT22;1652;51.318;6.202;2023-03-24T11:37:12;15.60;99.90
3281;DHT22;1652;51.318;6.202;2023-03-24T11:39:39;15.70;99.90
3281;DHT22;1652;51.318;6.202;2023-03-24T11:47:09;16.00;99.90
3281;DHT22;1652;51.318;6.202;2023-03-24T11:49:42;16.20;99.90
3281;DHT22;1652;51.318;6.202;2023-03-24T11:52:22;16.40;99.90
3281;DHT22;1652;51.318;6.202;2023-03-24T11:54:50;16.40;99.90
3281;DHT22;1652;51.318;6.202;2023-03-24T11:57:30;16.40;99.90
3281;DHT22;1652;51.318;6.202;2023-03-24T12:00:17;16.60;99.90
3281;DHT22;1652;51.318;6.202;2023-03-24T12:03:00;16.70;99.90
3281;DHT22;1652;51.318;6.202;2023-03-24T12:10:44;16.10;99.90
3281;DHT22;1652;51.318;6.202;2023-03-24T12:13:18;15.70;99.90
3281;DHT22;1652;51.318;6.202;2023-03-24T12:23:59;15.90;99.90
3281;DHT22;1652;51.318;6.202;2023-03-24T12:26:32;16.10;99.90
3281;DHT22;1652;51.318;6.202;2023-03-24T12:36:57;15.60;99.90
3281;DHT22;1652;51.318;6.202;2023-03-24T12:39:34;15.30;99.90
3281;DHT22;1652;51.318;6.202;2023-03-24T12:42:11;14.90;99.90
3281;DHT22;1652;51.318;6.202;2023-03-24T12:44:48;14.60;99.90
3281;DHT22;1652;51.318;6.202;2023-03-24T12:47:53;14.40;99.90
3281;DHT22;1652;51.318;6.202;2023-03-24T12:56:16;14.00;99.90
3281;DHT22;1652;51.318;6.202;2023-03-24T12:58:52;13.60;99.90
3281;DHT22;1652;51.318;6.202;2023-03-24T13:06:51;13.70;99.90
3281;DHT22;1652;51.318;6.202;2023-03-24T13:09:46;13.90;99.90
3281;DHT22;1652;51.318;6.202;2023-03-24T13:12:20;14.20;99.90
3281;DHT22;1652;51.318;6.202;2023-03-24T13:14:56;14.40;99.90
3281;DHT22;1652;51.318;6.202;2023-03-24T13:20:33;14.60;99.90
3281;DHT22;1652;51.318;6.202;2023-03-24T13:28:57;14.90;99.90
3281;DHT22;1652;51.318;6.202;2023-03-24T13:31:37;14.90;99.90
3281;DHT22;1652;51.318;6.202;2023-03-24T13:37:04;14.50;99.90
3281;DHT22;1652;51.318;6.202;2023-03-24T13:39:33;13.80;99.90
3281;DHT22;1652;51.318;6.202;2023-03-24T13:42:02;13.40;99.90
3281;DHT22;1652;51.318;6.202;2023-03-24T13:44:36;13.10;99.90
3281;DHT22;1652;51.318;6.202;2023-03-24T13:47:11;12.70;99.90
3281;DHT22;1652;51.318;6.202;2023-03-24T13:49:40;12.60;99.90
3281;DHT22;1652;51.318;6.202;2023-03-24T13:52:37;12.60;99.90
3281;DHT22;1652;51.318;6.202;2023-03-24T13:55:14;12.40;99.90
3281;DHT22;1652;51.318;6.202;2023-03-24T13:57:55;12.30;99.90
3281;DHT22;1652;51.318;6.202;2023-03-24T14:00:24;12.20;99.90
3281;DHT22;1652;51.318;6.202;2023-03-24T14:02:52;12.20;99.90
3281;DHT22;1652;51.318;6.202;2023-03-24T14:07:49;12.40;99.90
3281;DHT22;1652;51.318;6.202;2023-03-24T14:15:28;13.00;99.90
3281;DHT22;1652;51.318;6.202;2023-03-24T14:20:57;13.20;99.90
3281;DHT22;1652;51.318;6.202;2023-03-24T14:23:48;13.30;99.90
3281;DHT22;1652;51.318;6.202;2023-03-24T14:28:50;13.50;99.90
3281;DHT22;1652;51.318;6.202;2023-03-24T14:31:26;13.60;99.90
3281;DHT22;1652;51.318;6.202;2023-03-24T14:36:29;13.40;99.90
3281;DHT22;1652;51.318;6.202;2023-03-24T14:39:08;13.40;99.90
3281;DHT22;1652;51.318;6.202;2023-03-24T14:41:39;13.30;99.90
3281;DHT22;1652;51.318;6.202;2023-03-24T14:44:07;13.30;99.90
3281;DHT22;1652;51.318;6.202;2023-03-24T14:46:47;13.00;99.90
3281;DHT22;1652;51.318;6.202;2023-03-24T14:49:28;12.60;99.90
3281;DHT22;1652;51.318;6.202;2023-03-24T14:54:43;12.30;99.90
3281;DHT22;1652;51.318;6.202;2023-03-24T14:57:27;12.10;99.90
3281;DHT22;1652;51.318;6.202;2023-03-24T14:59:59;12.00;99.90
3281;DHT22;1652;51.318;6.202;2023-03-24T15:02:36;11.90;99.90
3281;DHT22;1652;51.318;6.202;2023-03-24T15:08:01;11.90;99.90
3281;DHT22;1652;51.318;6.202;2023-03-24T15:11:08;12.00;99.90
3281;DHT22;1652;51.318;6.202;2023-03-24T15:13:47;12.20;99.90
3281;DHT22;1652;51.318;6.202;2023-03-24T15:16:24;12.40;99.90
3281;DHT22;1652;51.318;6.202;2023-03-24T15:18:59;12.40;99.90
3281;DHT22;1652;51.318;6.202;2023-03-24T15:21:32;12.30;99.90
3281;DHT22;1652;51.318;6.202;2023-03-24T15:24:00;12.10;99.90
3281;DHT22;1652;51.318;6.202;2023-03-24T15:26:29;12.10;99.90
3281;DHT22;1652;51.318;6.202;2023-03-24T15:28:59;12.10;99.90
3281;DHT22;1652;51.318;6.202;2023-03-24T15:31:27;12.10;99.90
3281;DHT22;1652;51.318;6.202;2023-03-24T15:37:02;11.80;99.90
3281;DHT22;1652;51.318;6.202;2023-03-24T15:39:36;11.60;99.90
3281;DHT22;1652;51.318;6.202;2023-03-24T15:42:12;11.60;99.90
3281;DHT22;1652;51.318;6.202;2023-03-24T15:44:40;11.70;99.90
3281;DHT22;1652;51.318;6.202;2023-03-24T15:47:21;11.70;99.90
3281;DHT22;1652;51.318;6.202;2023-03-24T15:49:57;11.70;99.90
3281;DHT22;1652;51.318;6.202;2023-03-24T15:52:27;11.80;99.90
3281;DHT22;1652;51.318;6.202;2023-03-24T15:55:25;11.80;99.90
3281;DHT22;1652;51.318;6.202;2023-03-24T15:57:55;11.80;99.90
3281;DHT22;1652;51.318;6.202;2023-03-24T16:00:28;11.80;99.90
3281;DHT22;1652;51.318;6.202;2023-03-24T16:02:59;11.90;99.90
3281;DHT22;1652;51.318;6.202;2023-03-24T16:05:29;12.00;99.90
3281;DHT22;1652;51.318;6.202;2023-03-24T16:08:21;12.00;99.90
3281;DHT22;1652;51.318;6.202;2023-03-24T16:10:59;12.00;99.90
3281;DHT22;1652;51.318;6.202;2023-03-24T16:13:27;11.90;99.90
3281;DHT22;1652;51.318;6.202;2023-03-24T16:18:37;11.80;99.90
3281;DHT22;1652;51.318;6.202;2023-03-24T16:21:22;11.80;99.90
3281;DHT22;1652;51.318;6.202;2023-03-24T16:23:51;11.80;99.90
3281;DHT22;1652;51.318;6.202;2023-03-24T16:28:51;11.70;99.90
3281;DHT22;1652;51.318;6.202;2023-03-24T16:31:27;11.70;99.90
3281;DHT22;1652;51.318;6.202;2023-03-24T16:33:56;11.70;99.90
3281;DHT22;1652;51.318;6.202;2023-03-24T16:36:24;11.70;99.90
3281;DHT22;1652;51.318;6.202;2023-03-24T16:38:56;11.70;99.90
3281;DHT22;1652;51.318;6.202;2023-03-24T16:41:24;11.70;99.90
3281;DHT22;1652;51.318;6.202;2023-03-24T16:43:51;11.70;99.90
3281;DHT22;1652;51.318;6.202;2023-03-24T16:46:30;11.70;99.90
3281;DHT22;1652;51.318;6.202;2023-03-24T16:48:58;11.70;99.90
3281;DHT22;1652;51.318;6.202;2023-03-24T16:51:25;11.70;99.90
3281;DHT22;1652;51.318;6.202;2023-03-24T16:53:52;11.70;99.90
3281;DHT22;1652;51.318;6.202;2023-03-24T16:56:21;11.70;99.90
3281;DHT22;1652;51.318;6.202;2023-03-24T16:58:48;11.70;99.90
3281;DHT22;1652;51.318;6.202;2023-03-24T17:01:26;11.80;99.90
3281;DHT22;1652;51.318;6.202;2023-03-24T17:03:54;11.80;99.90
3281;DHT22;1652;51.318;6.202;2023-03-24T17:06:23;11.80;99.90
3281;DHT22;1652;51.318;6.202;2023-03-24T17:11:29;11.80;99.90
3281;DHT22;1652;51.318;6.202;2023-03-24T17:13:57;11.70;99.90
3281;DHT22;1652;51.318;6.202;2023-03-24T17:16:31;11.60;99.90
3281;DHT22;1652;51.318;6.202;2023-03-24T17:19:04;11.60;99.90
3281;DHT22;1652;51.318;6.202;2023-03-24T17:21:33;11.60;99.90
3281;DHT22;1652;51.318;6.202;2023-03-24T17:24:03;11.50;99.90
3281;DHT22;1652;51.318;6.202;2023-03-24T17:26:32;11.50;99.90
3281;DHT22;1652;51.318;6.202;2023-03-24T17:28:59;11.50;99.90
3281;DHT22;1652;51.318;6.202;2023-03-24T17:31:26;11.40;99.90
3281;DHT22;1652;51.318;6.202;2023-03-24T17:33:53;11.40;99.90
3281;DHT22;1652;51.318;6.202;2023-03-24T17:36:20;11.30;99.90
3281;DHT22;1652;51.318;6.202;2023-03-24T17:38:47;11.30;99.90
3281;DHT22;1652;51.318;6.202;2023-03-24T17:41:14;11.30;99.90
3281;DHT22;1652;51.318;6.202;2023-03-24T17:43:43;11.30;99.90
3281;DHT22;1652;51.318;6.202;2023-03-24T17:46:10;11.30;99.90
3281;DHT22;1652;51.318;6.202;2023-03-24T17:48:37;11.30;99.90
3281;DHT22;1652;51.318;6.202;2023-03-24T17:51:04;11.30;99.90
3281;DHT22;1652;51.318;6.202;2023-03-24T17:53:31;11.20;99.90
3281;DHT22;1652;51.318;6.202;2023-03-24T17:56:01;11.20;99.90
3281;DHT22;1652;51.318;6.202;2023-03-24T17:58:33;11.10;99.90
3281;DHT22;1652;51.318;6.202;2023-03-24T18:01:02;11.10;99.90
3281;DHT22;1652;51.318;6.202;2023-03-24T18:03:34;11.10;99.90
3281;DHT22;1652;51.318;6.202;2023-03-24T18:06:08;11.10;99.90
3281;DHT22;1652;51.318;6.202;2023-03-24T18:08:37;11.10;99.90
3281;DHT22;1652;51.318;6.202;2023-03-24T18:11:06;11.10;99.90
3281;DHT22;1652;51.318;6.202;2023-03-24T18:13:34;11.10;99.90
3281;DHT22;1652;51.318;6.202;2023-03-24T18:16:01;11.10;99.90
3281;DHT22;1652;51.318;6.202;2023-03-24T18:18:45;11.10;99.90
3281;DHT22;1652;51.318;6.202;2023-03-24T18:21:12;11.10;99.90
3281;DHT22;1652;51.318;6.202;2023-03-24T18:23:39;11.10;99.90
3281;DHT22;1652;51.318;6.202;2023-03-24T18:26:07;11.10;99.90
3281;DHT22;1652;51.318;6.202;2023-03-24T18:28:36;11.10;99.90
3281;DHT22;1652;51.318;6.202;2023-03-24T18:31:13;11.20;99.90
3281;DHT22;1652;51.318;6.202;2023-03-24T18:33:41;11.30;99.90
3281;DHT22;1652;51.318;6.202;2023-03-24T18:36:12;11.30;99.90
3281;DHT22;1652;51.318;6.202;2023-03-24T18:38:42;11.40;99.90
3281;DHT22;1652;51.318;6.202;2023-03-24T18:41:09;11.50;99.90
3281;DHT22;1652;51.318;6.202;2023-03-24T18:43:39;11.50;99.90
3281;DHT22;1652;51.318;6.202;2023-03-24T18:46:07;11.50;99.90
3281;DHT22;1652;51.318;6.202;2023-03-24T18:48:36;11.50;99.90
3281;DHT22;1652;51.318;6.202;2023-03-24T18:51:04;11.60;99.90
3281;DHT22;1652;51.318;6.202;2023-03-24T18:53:32;11.60;99.90
3281;DHT22;1652;51.318;6.202;2023-03-24T18:56:00;11.60;99.90
3281;DHT22;1652;51.318;6.202;2023-03-24T18:58:28;11.60;99.90